Bascom, Florida
Current Conditions -  °F | °C
As of 7:53 AM on Sunday 21 Dec 2014 (Local Time) from KMAI Reporting Station
Overcast Overcast  
Wind Chill: 53°   Ceiling: 800
Heat Index: 53°   Visibility: 10mi
Dew Point: 53°   Wind: 10mph
Humidity: 100%   Direction: 50°NE
Pressure: 30.11"   Gusts: NA
Location:  30.93°N, 85.12°W
Report Text: KMAI 211353Z AUTO 05009KT 10SM OVC008 12/12 A3011 RMK AO2 RAE17 CIG 006V011 SLP196 P0000 T01170117 $
Loading
Personal Weather Stations






























Interactive Weather Map New forecast layout! Learn more

10-Day Weather Forecast

Advertisements
Track Severe Weather on mobile